sensor_id;sensor_type;location;lat;lon;timestamp;P1;durP1;ratioP1;P2;durP2;ratioP2
8861;SDS011;4799;50.996;4.754;2024-03-02T00:00:06;1.90;;;0.90;;
8861;SDS011;4799;50.996;4.754;2024-03-02T00:02:42;0.97;;;0.80;;
8861;SDS011;4799;50.996;4.754;2024-03-02T00:05:16;1.40;;;0.77;;
8861;SDS011;4799;50.996;4.754;2024-03-02T00:07:53;1.63;;;1.10;;
8861;SDS011;4799;50.996;4.754;2024-03-02T00:10:25;1.10;;;0.90;;
8861;SDS011;4799;50.996;4.754;2024-03-02T00:12:55;1.37;;;0.90;;
8861;SDS011;4799;50.996;4.754;2024-03-02T00:15:40;1.13;;;1.00;;
8861;SDS011;4799;50.996;4.754;2024-03-02T00:18:13;1.30;;;0.93;;
8861;SDS011;4799;50.996;4.754;2024-03-02T00:20:43;2.00;;;1.03;;
8861;SDS011;4799;50.996;4.754;2024-03-02T00:23:09;1.27;;;1.00;;
8861;SDS011;4799;50.996;4.754;2024-03-02T00:25:40;0.80;;;0.80;;
8861;SDS011;4799;50.996;4.754;2024-03-02T00:33:18;1.40;;;0.90;;
8861;SDS011;4799;50.996;4.754;2024-03-02T00:35:45;1.30;;;0.80;;
8861;SDS011;4799;50.996;4.754;2024-03-02T00:38:11;1.17;;;0.70;;
8861;SDS011;4799;50.996;4.754;2024-03-02T00:40:37;1.73;;;0.70;;
8861;SDS011;4799;50.996;4.754;2024-03-02T00:43:03;1.53;;;0.70;;
8861;SDS011;4799;50.996;4.754;2024-03-02T00:45:29;1.17;;;0.90;;
8861;SDS011;4799;50.996;4.754;2024-03-02T00:47:55;1.10;;;0.80;;
8861;SDS011;4799;50.996;4.754;2024-03-02T00:50:21;1.50;;;0.73;;
8861;SDS011;4799;50.996;4.754;2024-03-02T00:52:47;1.73;;;0.80;;
8861;SDS011;4799;50.996;4.754;2024-03-02T00:55:15;1.17;;;0.80;;
8861;SDS011;4799;50.996;4.754;2024-03-02T00:57:41;1.40;;;0.73;;
8861;SDS011;4799;50.996;4.754;2024-03-02T01:00:09;1.17;;;0.80;;
8861;SDS011;4799;50.996;4.754;2024-03-02T01:02:38;0.80;;;0.73;;
8861;SDS011;4799;50.996;4.754;2024-03-02T01:05:04;1.60;;;0.70;;
8861;SDS011;4799;50.996;4.754;2024-03-02T01:07:30;1.47;;;0.80;;
8861;SDS011;4799;50.996;4.754;2024-03-02T01:09:56;0.70;;;0.63;;
8861;SDS011;4799;50.996;4.754;2024-03-02T01:12:21;2.50;;;0.70;;
8861;SDS011;4799;50.996;4.754;2024-03-02T01:14:47;1.90;;;0.80;;
8861;SDS011;4799;50.996;4.754;2024-03-02T01:17:13;1.40;;;1.03;;
8861;SDS011;4799;50.996;4.754;2024-03-02T01:19:41;2.10;;;0.90;;
8861;SDS011;4799;50.996;4.754;2024-03-02T01:22:07;1.60;;;1.00;;
8861;SDS011;4799;50.996;4.754;2024-03-02T01:24:32;1.43;;;1.00;;
8861;SDS011;4799;50.996;4.754;2024-03-02T01:26:59;1.07;;;0.97;;
8861;SDS011;4799;50.996;4.754;2024-03-02T01:29:24;1.30;;;0.90;;
8861;SDS011;4799;50.996;4.754;2024-03-02T01:31:50;1.10;;;0.87;;
8861;SDS011;4799;50.996;4.754;2024-03-02T01:34:16;1.70;;;0.80;;
8861;SDS011;4799;50.996;4.754;2024-03-02T01:36:42;0.60;;;0.60;;
8861;SDS011;4799;50.996;4.754;2024-03-02T01:39:08;0.80;;;0.70;;
8861;SDS011;4799;50.996;4.754;2024-03-02T01:41:34;0.97;;;0.83;;
8861;SDS011;4799;50.996;4.754;2024-03-02T01:44:00;1.47;;;0.80;;
8861;SDS011;4799;50.996;4.754;2024-03-02T01:46:26;0.93;;;0.70;;
8861;SDS011;4799;50.996;4.754;2024-03-02T01:48:51;1.20;;;0.80;;
8861;SDS011;4799;50.996;4.754;2024-03-02T01:51:17;0.90;;;0.70;;
8861;SDS011;4799;50.996;4.754;2024-03-02T01:53:43;0.87;;;0.73;;
8861;SDS011;4799;50.996;4.754;2024-03-02T01:56:08;0.93;;;0.60;;
8861;SDS011;4799;50.996;4.754;2024-03-02T01:58:34;1.13;;;0.70;;
8861;SDS011;4799;50.996;4.754;2024-03-02T02:01:01;0.73;;;0.70;;
8861;SDS011;4799;50.996;4.754;2024-03-02T02:03:27;1.23;;;0.80;;
8861;SDS011;4799;50.996;4.754;2024-03-02T02:05:52;0.70;;;0.63;;
8861;SDS011;4799;50.996;4.754;2024-03-02T02:08:18;1.53;;;0.80;;
8861;SDS011;4799;50.996;4.754;2024-03-02T02:10:44;2.70;;;0.70;;
8861;SDS011;4799;50.996;4.754;2024-03-02T02:13:09;2.10;;;1.10;;
8861;SDS011;4799;50.996;4.754;2024-03-02T02:15:35;0.80;;;0.63;;
8861;SDS011;4799;50.996;4.754;2024-03-02T02:18:01;1.00;;;0.87;;
8861;SDS011;4799;50.996;4.754;2024-03-02T02:20:28;2.17;;;1.00;;
8861;SDS011;4799;50.996;4.754;2024-03-02T02:25:34;1.40;;;0.80;;
8861;SDS011;4799;50.996;4.754;2024-03-02T02:28:00;1.43;;;0.73;;
8861;SDS011;4799;50.996;4.754;2024-03-02T02:30:28;1.03;;;0.70;;
8861;SDS011;4799;50.996;4.754;2024-03-02T02:32:55;1.00;;;0.70;;
8861;SDS011;4799;50.996;4.754;2024-03-02T02:35:21;1.83;;;0.70;;
8861;SDS011;4799;50.996;4.754;2024-03-02T02:37:49;1.33;;;0.60;;
8861;SDS011;4799;50.996;4.754;2024-03-02T02:40:17;1.20;;;0.70;;
8861;SDS011;4799;50.996;4.754;2024-03-02T02:42:46;2.87;;;0.90;;
8861;SDS011;4799;50.996;4.754;2024-03-02T02:45:12;1.30;;;0.70;;
8861;SDS011;4799;50.996;4.754;2024-03-02T02:47:39;1.63;;;0.83;;
8861;SDS011;4799;50.996;4.754;2024-03-02T02:50:09;1.50;;;0.70;;
8861;SDS011;4799;50.996;4.754;2024-03-02T02:52:37;1.63;;;0.80;;
8861;SDS011;4799;50.996;4.754;2024-03-02T02:55:06;1.53;;;0.70;;
8861;SDS011;4799;50.996;4.754;2024-03-02T02:57:33;2.00;;;0.80;;
8861;SDS011;4799;50.996;4.754;2024-03-02T03:00:10;1.40;;;0.70;;
8861;SDS011;4799;50.996;4.754;2024-03-02T03:02:45;2.93;;;0.90;;
8861;SDS011;4799;50.996;4.754;2024-03-02T03:05:14;1.83;;;0.83;;
8861;SDS011;4799;50.996;4.754;2024-03-02T03:07:40;1.87;;;0.90;;
8861;SDS011;4799;50.996;4.754;2024-03-02T03:10:07;2.37;;;0.80;;
8861;SDS011;4799;50.996;4.754;2024-03-02T03:12:33;1.47;;;0.80;;
8861;SDS011;4799;50.996;4.754;2024-03-02T03:14:59;1.73;;;0.70;;
8861;SDS011;4799;50.996;4.754;2024-03-02T03:17:26;2.80;;;1.07;;
8861;SDS011;4799;50.996;4.754;2024-03-02T03:19:54;1.17;;;0.80;;
8861;SDS011;4799;50.996;4.754;2024-03-02T03:22:20;1.73;;;0.73;;
8861;SDS011;4799;50.996;4.754;2024-03-02T03:24:46;1.80;;;0.70;;
8861;SDS011;4799;50.996;4.754;2024-03-02T03:27:11;1.70;;;0.90;;
8861;SDS011;4799;50.996;4.754;2024-03-02T03:29:37;2.23;;;0.93;;
8861;SDS011;4799;50.996;4.754;2024-03-02T03:32:03;1.30;;;0.60;;
8861;SDS011;4799;50.996;4.754;2024-03-02T03:34:32;3.10;;;0.77;;
8861;SDS011;4799;50.996;4.754;2024-03-02T03:36:58;2.30;;;0.80;;
8861;SDS011;4799;50.996;4.754;2024-03-02T03:39:24;3.00;;;0.80;;
8861;SDS011;4799;50.996;4.754;2024-03-02T03:41:49;3.03;;;0.90;;
8861;SDS011;4799;50.996;4.754;2024-03-02T03:44:16;2.63;;;0.90;;
8861;SDS011;4799;50.996;4.754;2024-03-02T03:46:41;1.20;;;0.80;;
8861;SDS011;4799;50.996;4.754;2024-03-02T03:49:07;2.30;;;0.93;;
8861;SDS011;4799;50.996;4.754;2024-03-02T03:51:33;2.07;;;0.90;;
8861;SDS011;4799;50.996;4.754;2024-03-02T03:53:59;2.50;;;1.10;;
8861;SDS011;4799;50.996;4.754;2024-03-02T03:56:24;1.67;;;1.03;;
8861;SDS011;4799;50.996;4.754;2024-03-02T03:58:50;2.27;;;0.80;;
8861;SDS011;4799;50.996;4.754;2024-03-02T04:01:16;2.13;;;0.90;;
8861;SDS011;4799;50.996;4.754;2024-03-02T04:03:42;1.57;;;0.80;;
8861;SDS011;4799;50.996;4.754;2024-03-02T04:06:07;1.37;;;0.80;;
8861;SDS011;4799;50.996;4.754;2024-03-02T04:08:33;2.07;;;1.03;;
8861;SDS011;4799;50.996;4.754;2024-03-02T04:10:58;2.13;;;1.00;;
8861;SDS011;4799;50.996;4.754;2024-03-02T04:13:24;2.63;;;1.10;;
8861;SDS011;4799;50.996;4.754;2024-03-02T04:15:50;2.77;;;1.10;;
8861;SDS011;4799;50.996;4.754;2024-03-02T04:18:16;2.63;;;1.23;;
8861;SDS011;4799;50.996;4.754;2024-03-02T04:20:41;1.93;;;0.97;;
8861;SDS011;4799;50.996;4.754;2024-03-02T04:23:07;2.37;;;1.00;;
8861;SDS011;4799;50.996;4.754;2024-03-02T04:25:33;2.97;;;1.00;;
8861;SDS011;4799;50.996;4.754;2024-03-02T04:27:59;1.97;;;1.00;;
8861;SDS011;4799;50.996;4.754;2024-03-02T04:30:24;3.13;;;1.23;;
8861;SDS011;4799;50.996;4.754;2024-03-02T04:32:50;1.83;;;0.80;;
8861;SDS011;4799;50.996;4.754;2024-03-02T04:35:16;2.10;;;1.10;;
8861;SDS011;4799;50.996;4.754;2024-03-02T04:37:41;2.10;;;0.90;;
8861;SDS011;4799;50.996;4.754;2024-03-02T04:40:07;3.27;;;1.10;;
8861;SDS011;4799;50.996;4.754;2024-03-02T04:42:34;2.80;;;1.03;;
8861;SDS011;4799;50.996;4.754;2024-03-02T04:45:00;2.47;;;1.10;;
8861;SDS011;4799;50.996;4.754;2024-03-02T04:47:27;3.97;;;1.10;;
8861;SDS011;4799;50.996;4.754;2024-03-02T04:49:52;2.87;;;1.20;;
8861;SDS011;4799;50.996;4.754;2024-03-02T04:52:18;2.07;;;1.20;;
8861;SDS011;4799;50.996;4.754;2024-03-02T04:54:44;2.60;;;1.10;;
8861;SDS011;4799;50.996;4.754;2024-03-02T04:57:28;2.60;;;1.13;;
8861;SDS011;4799;50.996;4.754;2024-03-02T04:59:54;2.80;;;1.20;;
8861;SDS011;4799;50.996;4.754;2024-03-02T05:02:19;2.27;;;1.20;;
8861;SDS011;4799;50.996;4.754;2024-03-02T05:04:45;2.40;;;1.00;;
8861;SDS011;4799;50.996;4.754;2024-03-02T05:07:11;3.40;;;1.30;;
8861;SDS011;4799;50.996;4.754;2024-03-02T05:09:36;2.20;;;1.10;;
8861;SDS011;4799;50.996;4.754;2024-03-02T05:12:02;1.37;;;0.80;;
8861;SDS011;4799;50.996;4.754;2024-03-02T05:14:42;1.97;;;1.17;;
8861;SDS011;4799;50.996;4.754;2024-03-02T05:17:08;3.87;;;1.10;;
8861;SDS011;4799;50.996;4.754;2024-03-02T05:19:33;2.73;;;1.10;;
8861;SDS011;4799;50.996;4.754;2024-03-02T05:21:59;2.17;;;1.10;;
8861;SDS011;4799;50.996;4.754;2024-03-02T05:24:25;1.90;;;1.30;;
8861;SDS011;4799;50.996;4.754;2024-03-02T05:26:54;3.63;;;1.27;;
8861;SDS011;4799;50.996;4.754;2024-03-02T05:29:19;1.77;;;1.20;;
8861;SDS011;4799;50.996;4.754;2024-03-02T05:31:46;4.03;;;1.20;;
8861;SDS011;4799;50.996;4.754;2024-03-02T05:34:12;4.13;;;1.40;;
8861;SDS011;4799;50.996;4.754;2024-03-02T05:36:37;3.00;;;1.13;;
8861;SDS011;4799;50.996;4.754;2024-03-02T05:39:04;2.70;;;1.30;;
8861;SDS011;4799;50.996;4.754;2024-03-02T05:41:34;2.13;;;1.10;;
8861;SDS011;4799;50.996;4.754;2024-03-02T05:44:00;2.50;;;1.30;;
8861;SDS011;4799;50.996;4.754;2024-03-02T05:46:26;2.97;;;1.30;;
8861;SDS011;4799;50.996;4.754;2024-03-02T05:48:52;3.47;;;1.23;;
8861;SDS011;4799;50.996;4.754;2024-03-02T05:51:18;2.97;;;1.10;;
8861;SDS011;4799;50.996;4.754;2024-03-02T05:53:44;3.53;;;1.23;;
8861;SDS011;4799;50.996;4.754;2024-03-02T05:56:10;4.33;;;1.40;;
8861;SDS011;4799;50.996;4.754;2024-03-02T05:58:37;2.17;;;1.10;;
8861;SDS011;4799;50.996;4.754;2024-03-02T06:01:15;3.83;;;1.30;;
8861;SDS011;4799;50.996;4.754;2024-03-02T06:03:43;4.27;;;1.40;;
8861;SDS011;4799;50.996;4.754;2024-03-02T06:06:09;2.00;;;1.20;;
8861;SDS011;4799;50.996;4.754;2024-03-02T06:08:35;4.50;;;1.30;;
8861;SDS011;4799;50.996;4.754;2024-03-02T06:11:00;4.57;;;1.30;;
8861;SDS011;4799;50.996;4.754;2024-03-02T06:13:26;4.87;;;1.60;;
8861;SDS011;4799;50.996;4.754;2024-03-02T06:15:52;3.33;;;1.30;;
8861;SDS011;4799;50.996;4.754;2024-03-02T06:18:18;4.07;;;1.50;;
8861;SDS011;4799;50.996;4.754;2024-03-02T06:20:44;2.93;;;1.40;;
8861;SDS011;4799;50.996;4.754;2024-03-02T06:23:09;2.20;;;1.53;;
8861;SDS011;4799;50.996;4.754;2024-03-02T06:25:35;4.87;;;1.20;;
8861;SDS011;4799;50.996;4.754;2024-03-02T06:28:01;2.97;;;1.17;;
8861;SDS011;4799;50.996;4.754;2024-03-02T06:30:27;3.37;;;1.50;;
8861;SDS011;4799;50.996;4.754;2024-03-02T06:32:53;3.57;;;1.33;;
8861;SDS011;4799;50.996;4.754;2024-03-02T06:35:18;2.77;;;1.30;;
8861;SDS011;4799;50.996;4.754;2024-03-02T06:37:44;3.20;;;1.60;;
8861;SDS011;4799;50.996;4.754;2024-03-02T06:40:10;4.07;;;1.40;;
8861;SDS011;4799;50.996;4.754;2024-03-02T06:42:36;2.87;;;1.30;;
8861;SDS011;4799;50.996;4.754;2024-03-02T06:45:02;3.57;;;1.37;;
8861;SDS011;4799;50.996;4.754;2024-03-02T06:47:28;4.77;;;1.53;;
8861;SDS011;4799;50.996;4.754;2024-03-02T06:49:54;2.60;;;1.47;;
8861;SDS011;4799;50.996;4.754;2024-03-02T06:52:20;3.23;;;1.57;;
8861;SDS011;4799;50.996;4.754;2024-03-02T06:54:46;3.83;;;1.47;;
8861;SDS011;4799;50.996;4.754;2024-03-02T06:57:12;4.77;;;1.40;;
8861;SDS011;4799;50.996;4.754;2024-03-02T06:59:37;4.47;;;1.47;;
8861;SDS011;4799;50.996;4.754;2024-03-02T07:02:03;2.90;;;1.37;;
8861;SDS011;4799;50.996;4.754;2024-03-02T07:04:29;4.70;;;1.40;;
8861;SDS011;4799;50.996;4.754;2024-03-02T07:06:55;2.93;;;1.23;;
8861;SDS011;4799;50.996;4.754;2024-03-02T07:09:21;5.97;;;1.40;;
8861;SDS011;4799;50.996;4.754;2024-03-02T07:11:50;3.30;;;1.17;;
8861;SDS011;4799;50.996;4.754;2024-03-02T07:14:15;3.23;;;1.30;;
8861;SDS011;4799;50.996;4.754;2024-03-02T07:16:41;4.70;;;1.60;;
8861;SDS011;4799;50.996;4.754;2024-03-02T07:19:08;5.67;;;1.47;;
8861;SDS011;4799;50.996;4.754;2024-03-02T07:21:34;5.07;;;1.47;;
8861;SDS011;4799;50.996;4.754;2024-03-02T07:24:00;3.17;;;1.60;;
8861;SDS011;4799;50.996;4.754;2024-03-02T07:26:28;3.50;;;1.47;;
8861;SDS011;4799;50.996;4.754;2024-03-02T07:28:56;2.40;;;1.43;;
8861;SDS011;4799;50.996;4.754;2024-03-02T07:31:22;2.83;;;1.50;;
8861;SDS011;4799;50.996;4.754;2024-03-02T07:33:48;3.77;;;1.40;;
8861;SDS011;4799;50.996;4.754;2024-03-02T07:36:14;2.97;;;1.30;;
8861;SDS011;4799;50.996;4.754;2024-03-02T07:38:40;3.40;;;1.30;;
8861;SDS011;4799;50.996;4.754;2024-03-02T07:41:06;3.07;;;1.50;;
8861;SDS011;4799;50.996;4.754;2024-03-02T07:43:33;3.83;;;1.50;;
8861;SDS011;4799;50.996;4.754;2024-03-02T07:45:59;4.70;;;1.60;;
8861;SDS011;4799;50.996;4.754;2024-03-02T07:48:25;5.73;;;1.50;;
8861;SDS011;4799;50.996;4.754;2024-03-02T07:50:52;3.10;;;1.40;;
8861;SDS011;4799;50.996;4.754;2024-03-02T07:53:17;4.17;;;1.70;;
8861;SDS011;4799;50.996;4.754;2024-03-02T07:55:43;3.57;;;1.30;;
8861;SDS011;4799;50.996;4.754;2024-03-02T07:58:09;3.50;;;1.57;;
8861;SDS011;4799;50.996;4.754;2024-03-02T08:00:36;3.27;;;1.30;;
8861;SDS011;4799;50.996;4.754;2024-03-02T08:03:05;4.17;;;1.60;;
8861;SDS011;4799;50.996;4.754;2024-03-02T08:05:31;3.23;;;1.50;;
8861;SDS011;4799;50.996;4.754;2024-03-02T08:07:57;2.83;;;1.70;;
8861;SDS011;4799;50.996;4.754;2024-03-02T08:10:23;3.53;;;1.43;;
8861;SDS011;4799;50.996;4.754;2024-03-02T08:12:48;3.30;;;1.40;;
8861;SDS011;4799;50.996;4.754;2024-03-02T08:15:14;3.60;;;1.63;;
8861;SDS011;4799;50.996;4.754;2024-03-02T08:17:40;4.30;;;1.77;;
8861;SDS011;4799;50.996;4.754;2024-03-02T08:20:13;2.13;;;1.33;;
8861;SDS011;4799;50.996;4.754;2024-03-02T08:22:39;3.07;;;1.47;;
8861;SDS011;4799;50.996;4.754;2024-03-02T08:25:05;4.33;;;1.40;;
8861;SDS011;4799;50.996;4.754;2024-03-02T08:27:32;6.00;;;1.60;;
8861;SDS011;4799;50.996;4.754;2024-03-02T08:29:58;4.20;;;1.40;;
8861;SDS011;4799;50.996;4.754;2024-03-02T08:32:23;3.53;;;1.40;;
8861;SDS011;4799;50.996;4.754;2024-03-02T08:34:49;4.13;;;1.80;;
8861;SDS011;4799;50.996;4.754;2024-03-02T08:37:15;3.30;;;1.57;;
8861;SDS011;4799;50.996;4.754;2024-03-02T08:39:40;4.50;;;1.53;;
8861;SDS011;4799;50.996;4.754;2024-03-02T08:42:06;4.07;;;1.43;;
8861;SDS011;4799;50.996;4.754;2024-03-02T08:44:32;4.50;;;1.47;;
8861;SDS011;4799;50.996;4.754;2024-03-02T08:46:58;3.97;;;1.40;;
8861;SDS011;4799;50.996;4.754;2024-03-02T08:49:24;2.70;;;1.20;;
8861;SDS011;4799;50.996;4.754;2024-03-02T08:51:50;4.20;;;1.70;;
8861;SDS011;4799;50.996;4.754;2024-03-02T08:54:22;4.67;;;1.60;;
8861;SDS011;4799;50.996;4.754;2024-03-02T08:56:48;5.03;;;1.43;;
8861;SDS011;4799;50.996;4.754;2024-03-02T08:59:15;3.97;;;1.50;;
8861;SDS011;4799;50.996;4.754;2024-03-02T09:01:41;5.50;;;1.57;;
8861;SDS011;4799;50.996;4.754;2024-03-02T09:04:08;5.30;;;1.80;;
8861;SDS011;4799;50.996;4.754;2024-03-02T09:06:34;4.33;;;1.40;;
8861;SDS011;4799;50.996;4.754;2024-03-02T09:09:00;2.77;;;1.47;;
8861;SDS011;4799;50.996;4.754;2024-03-02T09:11:26;4.33;;;1.50;;
8861;SDS011;4799;50.996;4.754;2024-03-02T09:13:51;4.10;;;1.50;;
8861;SDS011;4799;50.996;4.754;2024-03-02T09:16:18;4.20;;;1.40;;
8861;SDS011;4799;50.996;4.754;2024-03-02T09:18:44;3.13;;;1.60;;
8861;SDS011;4799;50.996;4.754;2024-03-02T09:21:10;4.50;;;1.43;;
8861;SDS011;4799;50.996;4.754;2024-03-02T09:23:36;3.23;;;1.47;;
8861;SDS011;4799;50.996;4.754;2024-03-02T09:26:01;3.13;;;1.40;;
8861;SDS011;4799;50.996;4.754;2024-03-02T09:28:28;4.33;;;1.60;;
8861;SDS011;4799;50.996;4.754;2024-03-02T09:30:54;6.23;;;2.07;;
8861;SDS011;4799;50.996;4.754;2024-03-02T09:33:20;3.10;;;1.43;;
8861;SDS011;4799;50.996;4.754;2024-03-02T09:35:45;3.13;;;1.33;;
8861;SDS011;4799;50.996;4.754;2024-03-02T09:38:11;2.43;;;1.33;;
8861;SDS011;4799;50.996;4.754;2024-03-02T09:40:37;4.47;;;1.80;;
8861;SDS011;4799;50.996;4.754;2024-03-02T09:43:03;3.50;;;1.60;;
8861;SDS011;4799;50.996;4.754;2024-03-02T09:45:28;2.47;;;1.30;;
8861;SDS011;4799;50.996;4.754;2024-03-02T09:47:55;5.17;;;1.40;;
8861;SDS011;4799;50.996;4.754;2024-03-02T09:50:21;4.67;;;1.60;;
8861;SDS011;4799;50.996;4.754;2024-03-02T09:52:50;4.57;;;1.97;;
8861;SDS011;4799;50.996;4.754;2024-03-02T09:55:17;4.03;;;1.60;;
8861;SDS011;4799;50.996;4.754;2024-03-02T09:57:45;4.17;;;1.60;;
8861;SDS011;4799;50.996;4.754;2024-03-02T10:00:11;3.97;;;1.47;;
8861;SDS011;4799;50.996;4.754;2024-03-02T10:02:40;4.90;;;1.80;;
8861;SDS011;4799;50.996;4.754;2024-03-02T10:05:07;3.23;;;1.30;;
8861;SDS011;4799;50.996;4.754;2024-03-02T10:07:33;4.40;;;1.60;;
8861;SDS011;4799;50.996;4.754;2024-03-02T10:10:00;4.77;;;1.50;;
8861;SDS011;4799;50.996;4.754;2024-03-02T10:12:40;4.30;;;1.73;;
8861;SDS011;4799;50.996;4.754;2024-03-02T10:15:06;4.03;;;1.90;;
8861;SDS011;4799;50.996;4.754;2024-03-02T10:17:34;4.53;;;1.50;;
8861;SDS011;4799;50.996;4.754;2024-03-02T10:20:04;3.70;;;1.60;;
8861;SDS011;4799;50.996;4.754;2024-03-02T10:22:49;3.27;;;1.30;;
8861;SDS011;4799;50.996;4.754;2024-03-02T10:25:33;4.87;;;1.70;;
8861;SDS011;4799;50.996;4.754;2024-03-02T10:27:59;4.00;;;1.50;;
8861;SDS011;4799;50.996;4.754;2024-03-02T10:30:29;5.30;;;1.50;;
8861;SDS011;4799;50.996;4.754;2024-03-02T10:32:54;3.97;;;1.50;;
8861;SDS011;4799;50.996;4.754;2024-03-02T10:35:21;4.50;;;1.60;;
8861;SDS011;4799;50.996;4.754;2024-03-02T10:37:48;6.97;;;2.07;;
8861;SDS011;4799;50.996;4.754;2024-03-02T10:40:14;3.93;;;1.77;;
8861;SDS011;4799;50.996;4.754;2024-03-02T10:42:41;5.97;;;1.50;;
8861;SDS011;4799;50.996;4.754;2024-03-02T10:45:09;5.73;;;1.70;;
8861;SDS011;4799;50.996;4.754;2024-03-02T10:47:38;4.87;;;1.63;;
8861;SDS011;4799;50.996;4.754;2024-03-02T10:50:04;3.80;;;2.37;;
8861;SDS011;4799;50.996;4.754;2024-03-02T10:52:39;5.50;;;1.40;;
8861;SDS011;4799;50.996;4.754;2024-03-02T10:55:06;4.03;;;1.43;;
8861;SDS011;4799;50.996;4.754;2024-03-02T11:00:18;6.30;;;1.60;;
8861;SDS011;4799;50.996;4.754;2024-03-02T11:02:51;5.23;;;1.50;;
8861;SDS011;4799;50.996;4.754;2024-03-02T11:05:31;5.00;;;1.50;;
8861;SDS011;4799;50.996;4.754;2024-03-02T11:08:04;5.83;;;1.90;;
8861;SDS011;4799;50.996;4.754;2024-03-02T11:10:45;4.00;;;1.60;;
8861;SDS011;4799;50.996;4.754;2024-03-02T11:13:24;2.70;;;1.40;;
8861;SDS011;4799;50.996;4.754;2024-03-02T11:15:57;3.23;;;1.30;;
8861;SDS011;4799;50.996;4.754;2024-03-02T11:18:28;6.90;;;1.53;;
8861;SDS011;4799;50.996;4.754;2024-03-02T11:20:55;3.70;;;1.27;;
8861;SDS011;4799;50.996;4.754;2024-03-02T11:23:31;4.50;;;1.30;;
8861;SDS011;4799;50.996;4.754;2024-03-02T11:28:46;5.13;;;1.40;;
8861;SDS011;4799;50.996;4.754;2024-03-02T11:31:12;3.50;;;1.57;;
8861;SDS011;4799;50.996;4.754;2024-03-02T11:33:38;4.53;;;1.50;;
8861;SDS011;4799;50.996;4.754;2024-03-02T11:36:05;3.58;;;1.55;;
8861;SDS011;4799;50.996;4.754;2024-03-02T11:38:32;3.50;;;1.40;;
8861;SDS011;4799;50.996;4.754;2024-03-02T11:41:00;5.00;;;1.60;;
8861;SDS011;4799;50.996;4.754;2024-03-02T11:43:28;4.53;;;1.30;;
8861;SDS011;4799;50.996;4.754;2024-03-02T11:45:58;3.70;;;1.40;;
8861;SDS011;4799;50.996;4.754;2024-03-02T11:48:25;4.03;;;1.40;;
8861;SDS011;4799;50.996;4.754;2024-03-02T11:50:51;3.77;;;1.60;;
8861;SDS011;4799;50.996;4.754;2024-03-02T11:53:20;3.37;;;1.50;;
8861;SDS011;4799;50.996;4.754;2024-03-02T11:55:46;4.10;;;1.63;;
8861;SDS011;4799;50.996;4.754;2024-03-02T11:58:17;5.27;;;1.50;;
8861;SDS011;4799;50.996;4.754;2024-03-02T12:00:45;4.70;;;1.40;;
8861;SDS011;4799;50.996;4.754;2024-03-02T12:03:12;3.57;;;1.27;;
8861;SDS011;4799;50.996;4.754;2024-03-02T12:05:39;4.27;;;1.30;;
8861;SDS011;4799;50.996;4.754;2024-03-02T12:08:05;2.97;;;1.27;;
8861;SDS011;4799;50.996;4.754;2024-03-02T12:10:32;3.43;;;1.20;;
8861;SDS011;4799;50.996;4.754;2024-03-02T12:12:59;4.97;;;1.17;;
8861;SDS011;4799;50.996;4.754;2024-03-02T12:15:27;2.83;;;1.20;;
8861;SDS011;4799;50.996;4.754;2024-03-02T12:17:57;3.67;;;1.30;;
8861;SDS011;4799;50.996;4.754;2024-03-02T12:20:24;5.40;;;1.40;;
8861;SDS011;4799;50.996;4.754;2024-03-02T12:22:52;5.20;;;1.57;;
8861;SDS011;4799;50.996;4.754;2024-03-02T12:25:22;4.10;;;1.30;;
8861;SDS011;4799;50.996;4.754;2024-03-02T12:27:49;2.87;;;1.40;;
8861;SDS011;4799;50.996;4.754;2024-03-02T12:30:17;3.20;;;1.37;;
8861;SDS011;4799;50.996;4.754;2024-03-02T12:32:43;3.43;;;1.50;;
8861;SDS011;4799;50.996;4.754;2024-03-02T12:35:10;3.77;;;1.33;;
8861;SDS011;4799;50.996;4.754;2024-03-02T12:37:47;3.30;;;1.30;;
8861;SDS011;4799;50.996;4.754;2024-03-02T12:40:18;4.50;;;1.20;;
8861;SDS011;4799;50.996;4.754;2024-03-02T12:42:45;3.67;;;1.33;;
8861;SDS011;4799;50.996;4.754;2024-03-02T12:45:12;3.60;;;1.40;;
8861;SDS011;4799;50.996;4.754;2024-03-02T12:47:39;4.07;;;1.30;;
8861;SDS011;4799;50.996;4.754;2024-03-02T12:50:06;3.73;;;1.50;;
8861;SDS011;4799;50.996;4.754;2024-03-02T12:52:32;4.23;;;1.40;;
8861;SDS011;4799;50.996;4.754;2024-03-02T12:54:59;2.30;;;1.20;;
8861;SDS011;4799;50.996;4.754;2024-03-02T12:57:28;3.60;;;1.27;;
8861;SDS011;4799;50.996;4.754;2024-03-02T13:00:13;3.03;;;1.43;;
8861;SDS011;4799;50.996;4.754;2024-03-02T13:02:39;3.30;;;1.43;;
8861;SDS011;4799;50.996;4.754;2024-03-02T13:05:06;3.17;;;1.43;;
8861;SDS011;4799;50.996;4.754;2024-03-02T13:07:36;1.97;;;1.20;;
8861;SDS011;4799;50.996;4.754;2024-03-02T13:10:03;4.33;;;1.60;;
8861;SDS011;4799;50.996;4.754;2024-03-02T13:12:29;3.27;;;1.43;;
8861;SDS011;4799;50.996;4.754;2024-03-02T13:14:57;3.13;;;1.50;;
8861;SDS011;4799;50.996;4.754;2024-03-02T13:17:24;2.60;;;1.20;;
8861;SDS011;4799;50.996;4.754;2024-03-02T13:19:56;2.77;;;1.13;;
8861;SDS011;4799;50.996;4.754;2024-03-02T13:22:23;3.07;;;1.20;;
8861;SDS011;4799;50.996;4.754;2024-03-02T13:24:50;3.80;;;1.43;;
8861;SDS011;4799;50.996;4.754;2024-03-02T13:27:17;3.23;;;1.20;;
8861;SDS011;4799;50.996;4.754;2024-03-02T13:29:46;4.17;;;1.50;;
8861;SDS011;4799;50.996;4.754;2024-03-02T13:32:13;2.70;;;1.13;;
8861;SDS011;4799;50.996;4.754;2024-03-02T13:34:39;5.03;;;1.50;;
8861;SDS011;4799;50.996;4.754;2024-03-02T13:37:05;3.10;;;1.30;;
8861;SDS011;4799;50.996;4.754;2024-03-02T13:39:31;3.50;;;1.40;;
8861;SDS011;4799;50.996;4.754;2024-03-02T13:41:58;2.43;;;1.40;;
8861;SDS011;4799;50.996;4.754;2024-03-02T13:44:30;3.50;;;1.20;;
8861;SDS011;4799;50.996;4.754;2024-03-02T13:46:56;1.77;;;1.10;;
8861;SDS011;4799;50.996;4.754;2024-03-02T13:49:23;4.20;;;1.27;;
8861;SDS011;4799;50.996;4.754;2024-03-02T13:51:49;2.47;;;1.30;;
8861;SDS011;4799;50.996;4.754;2024-03-02T13:54:15;4.00;;;1.30;;
8861;SDS011;4799;50.996;4.754;2024-03-02T13:56:41;1.63;;;1.10;;
8861;SDS011;4799;50.996;4.754;2024-03-02T13:59:07;2.10;;;1.10;;
8861;SDS011;4799;50.996;4.754;2024-03-02T14:01:33;1.80;;;1.03;;
8861;SDS011;4799;50.996;4.754;2024-03-02T14:03:59;3.63;;;1.10;;
8861;SDS011;4799;50.996;4.754;2024-03-02T14:06:24;2.90;;;1.10;;
8861;SDS011;4799;50.996;4.754;2024-03-02T14:08:53;3.10;;;1.10;;
8861;SDS011;4799;50.996;4.754;2024-03-02T14:11:18;2.70;;;1.10;;
8861;SDS011;4799;50.996;4.754;2024-03-02T14:13:44;1.67;;;1.07;;
8861;SDS011;4799;50.996;4.754;2024-03-02T14:16:18;3.40;;;1.30;;
8861;SDS011;4799;50.996;4.754;2024-03-02T14:18:44;3.33;;;1.17;;
8861;SDS011;4799;50.996;4.754;2024-03-02T14:21:10;4.03;;;1.40;;
8861;SDS011;4799;50.996;4.754;2024-03-02T14:23:36;2.17;;;1.10;;
8861;SDS011;4799;50.996;4.754;2024-03-02T14:26:02;1.90;;;1.03;;
8861;SDS011;4799;50.996;4.754;2024-03-02T14:28:28;3.23;;;0.97;;
8861;SDS011;4799;50.996;4.754;2024-03-02T14:30:54;3.67;;;1.20;;
8861;SDS011;4799;50.996;4.754;2024-03-02T14:33:20;2.37;;;1.10;;
8861;SDS011;4799;50.996;4.754;2024-03-02T14:35:46;2.77;;;1.20;;
8861;SDS011;4799;50.996;4.754;2024-03-02T14:38:12;1.60;;;1.00;;
8861;SDS011;4799;50.996;4.754;2024-03-02T14:40:38;2.37;;;1.07;;
8861;SDS011;4799;50.996;4.754;2024-03-02T14:43:04;2.27;;;1.10;;
8861;SDS011;4799;50.996;4.754;2024-03-02T14:45:29;2.63;;;1.03;;
8861;SDS011;4799;50.996;4.754;2024-03-02T14:47:55;2.43;;;1.17;;
8861;SDS011;4799;50.996;4.754;2024-03-02T14:50:25;3.10;;;1.07;;
8861;SDS011;4799;50.996;4.754;2024-03-02T14:52:51;2.17;;;1.33;;
8861;SDS011;4799;50.996;4.754;2024-03-02T14:55:17;2.33;;;0.93;;
8861;SDS011;4799;50.996;4.754;2024-03-02T14:57:43;3.50;;;1.50;;
8861;SDS011;4799;50.996;4.754;2024-03-02T15:00:08;4.07;;;1.10;;
8861;SDS011;4799;50.996;4.754;2024-03-02T15:02:36;1.77;;;0.90;;
8861;SDS011;4799;50.996;4.754;2024-03-02T15:05:03;1.50;;;0.97;;
8861;SDS011;4799;50.996;4.754;2024-03-02T15:07:30;2.13;;;1.03;;
8861;SDS011;4799;50.996;4.754;2024-03-02T15:09:56;2.50;;;1.00;;
8861;SDS011;4799;50.996;4.754;2024-03-02T15:12:22;2.17;;;1.00;;
8861;SDS011;4799;50.996;4.754;2024-03-02T15:14:48;2.63;;;0.97;;
8861;SDS011;4799;50.996;4.754;2024-03-02T15:17:14;1.97;;;1.20;;
8861;SDS011;4799;50.996;4.754;2024-03-02T15:19:44;2.10;;;1.00;;
8861;SDS011;4799;50.996;4.754;2024-03-02T15:22:10;1.77;;;0.83;;
8861;SDS011;4799;50.996;4.754;2024-03-02T15:24:36;2.00;;;1.00;;
8861;SDS011;4799;50.996;4.754;2024-03-02T15:27:02;1.60;;;1.00;;